Time;durP1;ratioP1;P1;durP2;ratioP2;P2;SDS_P1;SDS_P2;PMS_P1;PMS_P2;Temp;Humidity;BMP_temperature;BMP_pressure;BME280_temperature;BME280_humidity;BME280_pressure;Samples;Min_cycle;Max_cycle;Signal;HPM_P1;HPM_P2
2022/04/28 00:02:25;;;;;;;13.45;6.70;;;11.20;99.90;;;;;;5060486;28;20089;-81
2022/04/28 00:04:51;;;;;;;11.95;6.28;;;11.10;99.90;;;;;;5059936;28;20056;-81
2022/04/28 00:07:17;;;;;;;10.57;6.35;;;11.10;99.90;;;;;;5044044;28;20133;-83
2022/04/28 00:09:43;;;;;;;9.02;6.07;;;11.00;99.90;;;;;;5053648;28;20025;-80
2022/04/28 00:12:10;;;;;;;11.95;6.65;;;11.00;99.90;;;;;;5060177;28;20029;-83
2022/04/28 00:14:37;;;;;;;16.35;6.82;;;11.00;99.90;;;;;;5043378;28;21885;-81
2022/04/28 00:17:03;;;;;;;11.68;7.00;;;11.00;99.90;;;;;;5042911;28;20029;-82
2022/04/28 00:19:29;;;;;;;12.65;6.70;;;11.00;99.90;;;;;;5063995;28;20025;-83
2022/04/28 00:21:55;;;;;;;10.50;6.35;;;10.90;99.90;;;;;;5026003;28;20116;-81
2022/04/28 00:24:20;;;;;;;12.07;6.10;;;10.90;99.90;;;;;;5068022;28;20468;-82
2022/04/28 00:26:46;;;;;;;12.73;7.00;;;10.90;99.90;;;;;;5042926;28;20025;-83
2022/04/28 00:29:12;;;;;;;12.20;6.30;;;10.80;99.90;;;;;;5025887;28;20025;-82
2022/04/28 00:31:38;;;;;;;10.00;5.97;;;10.80;99.90;;;;;;5059581;28;20048;-84
2022/04/28 00:34:03;;;;;;;11.45;7.10;;;10.80;99.90;;;;;;5042551;28;20032;-81
2022/04/28 00:36:29;;;;;;;11.77;6.57;;;10.80;99.90;;;;;;5041906;28;20081;-83
2022/04/28 00:38:55;;;;;;;11.30;6.70;;;10.70;99.90;;;;;;5060180;28;20029;-83
2022/04/28 00:41:21;;;;;;;12.75;6.25;;;10.80;99.90;;;;;;5040249;28;20025;-82
2022/04/28 00:43:51;;;;;;;11.00;6.85;;;10.70;99.90;;;;;;5041972;28;20028;-81
2022/04/28 00:46:18;;;;;;;14.00;6.47;;;10.70;99.90;;;;;;5042450;28;20033;-82
2022/04/28 00:51:33;;;;;;;11.60;6.60;;;10.70;99.90;;;;;;5054629;28;20036;-80
2022/04/28 00:54:00;;;;;;;14.07;6.55;;;10.70;99.90;;;;;;5073938;28;20028;-80
2022/04/28 00:56:30;;;;;;;13.23;6.38;;;10.70;99.90;;;;;;5088938;22;20048;-86
2022/04/28 00:59:02;;;;;;;10.32;6.30;;;10.70;99.90;;;;;;5076781;28;20395;-85
2022/04/28 01:01:32;;;;;;;10.98;6.47;;;10.60;99.90;;;;;;5060608;28;20008;-86
2022/04/28 01:03:58;;;;;;;15.18;7.15;;;10.60;99.90;;;;;;5088421;28;20025;-86
2022/04/28 01:06:24;;;;;;;12.23;6.43;;;10.60;99.90;;;;;;5095226;28;20048;-86
2022/04/28 01:08:50;;;;;;;12.18;6.93;;;10.50;99.90;;;;;;5080499;28;20051;-86
2022/04/28 01:11:18;;;;;;;10.98;6.40;;;10.40;99.90;;;;;;5079623;28;20059;-87
2022/04/28 01:13:46;;;;;;;13.88;6.40;;;10.50;99.90;;;;;;5080391;28;20142;-86
2022/04/28 01:16:19;;;;;;;13.77;7.07;;;10.40;99.90;;;;;;5078877;28;20107;-86
2022/04/28 01:18:45;;;;;;;13.43;7.68;;;10.40;99.90;;;;;;5073112;28;20020;-86
2022/04/28 01:21:11;;;;;;;10.52;6.53;;;10.50;99.90;;;;;;5079798;28;20051;-84
2022/04/28 01:23:38;;;;;;;13.02;6.43;;;10.40;99.90;;;;;;5080145;28;20024;-86
2022/04/28 01:26:05;;;;;;;16.70;7.43;;;10.40;99.90;;;;;;5079135;28;20027;-86
2022/04/28 01:28:32;;;;;;;14.82;8.35;;;10.40;99.90;;;;;;5079888;28;20028;-86
2022/04/28 01:31:05;;;;;;;13.45;6.57;;;10.40;99.90;;;;;;5079065;28;20017;-85
2022/04/28 01:33:37;;;;;;;11.98;7.28;;;10.40;99.90;;;;;;5094122;28;20029;-87
2022/04/28 01:36:03;;;;;;;12.15;7.30;;;10.40;99.90;;;;;;5088318;28;20085;-87
2022/04/28 01:38:29;;;;;;;9.85;6.38;;;10.40;99.90;;;;;;5067663;28;20052;-85
2022/04/28 01:40:55;;;;;;;16.77;7.35;;;10.40;99.90;;;;;;5055775;28;20044;-85
2022/04/28 01:43:20;;;;;;;13.55;7.10;;;10.30;99.90;;;;;;5073368;28;20112;-86
2022/04/28 01:45:46;;;;;;;16.73;7.97;;;10.30;99.90;;;;;;5073571;28;20032;-86
2022/04/28 01:48:25;;;;;;;13.60;6.97;;;10.20;99.90;;;;;;5071448;28;20055;-87
2022/04/28 01:56:50;;;;;;;13.98;7.35;;;10.10;99.90;;;;;;5064783;28;20043;-86
2022/04/28 01:59:28;;;;;;;11.48;7.18;;;10.10;99.90;;;;;;5083134;28;20080;-87
2022/04/28 02:02:16;;;;;;;22.25;8.02;;;10.10;99.90;;;;;;5053518;28;20036;-86
2022/04/28 02:04:42;;;;;;;14.90;7.78;;;10.00;99.90;;;;;;5054961;28;20067;-86
2022/04/28 02:07:08;;;;;;;16.13;8.30;;;10.00;99.90;;;;;;5053455;28;20083;-85
2022/04/28 02:09:35;;;;;;;12.95;7.45;;;10.00;99.90;;;;;;5053496;28;20036;-86
2022/04/28 02:12:03;;;;;;;16.73;8.15;;;9.90;99.90;;;;;;5066488;28;20024;-85
2022/04/28 02:14:32;;;;;;;12.68;7.57;;;9.90;99.90;;;;;;5083441;28;20048;-86
2022/04/28 02:17:38;;;;;;;12.52;7.65;;;9.90;99.90;;;;;;5057769;28;20024;-86
2022/04/28 02:20:07;;;;;;;13.43;7.40;;;9.90;99.90;;;;;;5069609;28;20021;-86
2022/04/28 02:22:34;;;;;;;18.45;7.55;;;9.90;99.90;;;;;;5086659;28;20025;-85
2022/04/28 02:25:00;;;;;;;17.27;7.95;;;9.80;99.90;;;;;;5067086;28;20098;-87
2022/04/28 02:27:27;;;;;;;15.00;7.57;;;9.80;99.90;;;;;;5070419;28;20032;-86
2022/04/28 02:29:54;;;;;;;12.32;7.32;;;9.80;99.90;;;;;;5071622;28;20519;-86
2022/04/28 02:32:20;;;;;;;14.00;7.78;;;9.90;99.90;;;;;;5069620;28;20044;-85
2022/04/28 02:34:46;;;;;;;13.82;7.22;;;9.80;99.90;;;;;;5070482;28;20051;-85
2022/04/28 02:37:13;;;;;;;18.38;7.75;;;9.80;99.90;;;;;;5068757;28;20025;-85
2022/04/28 02:39:40;;;;;;;14.50;7.65;;;9.80;99.90;;;;;;5051577;28;20029;-84
2022/04/28 02:42:10;;;;;;;15.60;7.72;;;9.80;99.90;;;;;;5069003;28;20415;-88
2022/04/28 02:44:37;;;;;;;14.18;7.65;;;9.80;99.90;;;;;;5064819;28;20392;-86
2022/04/28 02:47:07;;;;;;;12.68;7.28;;;9.80;99.90;;;;;;5049374;28;20032;-88
2022/04/28 02:49:33;;;;;;;15.35;8.27;;;9.80;99.90;;;;;;5065618;28;20020;-85
2022/04/28 02:52:04;;;;;;;11.55;7.15;;;9.70;99.90;;;;;;5075050;28;20024;-87
2022/04/28 02:54:31;;;;;;;15.80;8.25;;;9.70;99.90;;;;;;5077815;28;20060;-85
2022/04/28 02:56:57;;;;;;;14.80;7.93;;;9.70;99.90;;;;;;5073940;28;20032;-87
2022/04/28 02:59:22;;;;;;;18.50;8.20;;;9.60;99.90;;;;;;5084543;28;20031;-86
2022/04/28 03:01:48;;;;;;;19.17;8.60;;;9.60;99.90;;;;;;5065593;28;20419;-86
2022/04/28 03:04:14;;;;;;;13.63;8.07;;;9.60;99.90;;;;;;5066023;28;20082;-85
2022/04/28 03:12:20;;;;;;;14.98;7.25;;;9.60;99.90;;;;;;5008463;28;19910;-84
2022/04/28 03:14:57;;;;;;;13.30;7.60;;;9.50;99.90;;;;;;5077326;28;20021;-85
2022/04/28 03:17:24;;;;;;;14.18;7.85;;;9.50;99.90;;;;;;5079403;28;20032;-86
2022/04/28 03:19:49;;;;;;;14.25;8.32;;;9.50;99.90;;;;;;5084765;28;20372;-85
2022/04/28 03:22:15;;;;;;;15.90;9.13;;;9.50;99.90;;;;;;5080604;28;20021;-85
2022/04/28 03:24:41;;;;;;;13.63;7.85;;;9.40;99.90;;;;;;5081659;28;20047;-84
2022/04/28 03:27:08;;;;;;;14.50;7.70;;;9.40;99.90;;;;;;5062442;28;20487;-85
2022/04/28 03:29:36;;;;;;;17.50;7.85;;;9.30;99.90;;;;;;5064134;28;20040;-85
2022/04/28 03:32:03;;;;;;;15.77;7.88;;;9.30;99.90;;;;;;5047003;28;20037;-84
2022/04/28 03:34:42;;;;;;;12.57;7.43;;;9.20;99.90;;;;;;5063285;28;20492;-86
2022/04/28 03:37:08;;;;;;;16.52;7.63;;;9.20;99.90;;;;;;5063269;28;20031;-86
2022/04/28 03:39:38;;;;;;;16.00;7.82;;;9.10;99.90;;;;;;5062998;28;20024;-86
2022/04/28 03:42:06;;;;;;;12.88;8.07;;;9.10;99.90;;;;;;5063023;28;20031;-85
2022/04/28 03:44:32;;;;;;;14.68;8.70;;;9.10;99.90;;;;;;5073777;28;20032;-84
2022/04/28 03:46:59;;;;;;;14.98;7.78;;;9.10;99.90;;;;;;5081051;28;20040;-84
2022/04/28 03:49:25;;;;;;;15.40;8.30;;;9.20;99.90;;;;;;5065606;28;20013;-85
2022/04/28 03:51:51;;;;;;;11.75;7.00;;;9.20;99.90;;;;;;5098971;28;20021;-83
2022/04/28 03:54:17;;;;;;;14.70;8.13;;;9.20;99.90;;;;;;5077876;28;20047;-85
2022/04/28 03:56:43;;;;;;;18.42;8.13;;;9.20;99.90;;;;;;5052802;28;20041;-84
2022/04/28 03:59:10;;;;;;;15.75;8.77;;;9.20;99.90;;;;;;5047151;28;20016;-85
2022/04/28 04:01:58;;;;;;;14.20;8.52;;;9.10;99.90;;;;;;5080383;28;20029;-85
2022/04/28 04:04:25;;;;;;;15.88;8.18;;;9.10;99.90;;;;;;5061708;28;20032;-84
2022/04/28 04:07:01;;;;;;;14.60;7.57;;;9.10;99.90;;;;;;5058652;28;20031;-85
2022/04/28 04:09:36;;;;;;;;;;;9.20;99.90;;;;;;5080144;28;20041;-84
2022/04/28 04:12:05;;;;;;;17.25;8.10;;;9.20;99.90;;;;;;5075141;28;19997;-84
2022/04/28 04:14:49;;;;;;;17.67;7.47;;;9.20;99.90;;;;;;5078095;28;20112;-81
2022/04/28 04:17:17;;;;;;;18.05;7.35;;;9.30;99.90;;;;;;5076991;28;20024;-84
2022/04/28 04:19:43;;;;;;;16.70;8.02;;;9.40;99.90;;;;;;5078003;28;20054;-82
2022/04/28 04:22:09;;;;;;;12.43;7.40;;;9.40;99.90;;;;;;5095003;28;20029;-82
2022/04/28 04:24:35;;;;;;;12.20;7.63;;;9.50;99.90;;;;;;5078203;28;20024;-82
2022/04/28 04:27:02;;;;;;;14.07;7.65;;;9.60;99.90;;;;;;5044428;28;20020;-83
2022/04/28 04:29:59;;;;;;;13.90;8.25;;;9.70;99.90;;;;;;5071320;28;20051;-83
2022/04/28 04:32:45;;;;;;;10.90;6.97;;;9.80;99.90;;;;;;5079217;28;20036;-81
2022/04/28 04:35:24;;;;;;;11.88;7.10;;;9.80;99.90;;;;;;5066057;28;20025;-81
2022/04/28 04:37:51;;;;;;;19.42;7.53;;;9.90;99.90;;;;;;5079440;28;20027;-82
2022/04/28 04:40:17;;;;;;;12.90;7.65;;;9.90;99.90;;;;;;5074907;28;20107;-82
2022/04/28 04:42:44;;;;;;;15.35;8.43;;;10.00;99.90;;;;;;5070518;28;20013;-83
2022/04/28 04:45:11;;;;;;;18.25;7.53;;;10.10;99.90;;;;;;5072004;28;20038;-82
2022/04/28 04:48:06;;;;;;;13.10;7.80;;;10.20;99.90;;;;;;5072405;28;20024;-82
2022/04/28 04:50:52;;;;;;;;;;;10.30;99.90;;;;;;5082146;28;20013;-80
2022/04/28 04:53:33;;;;;;;14.18;6.95;;;10.30;99.90;;;;;;5077545;28;19905;-84
2022/04/28 04:56:00;;;;;;;16.55;7.97;;;10.40;99.90;;;;;;5069411;28;20037;-86
2022/04/28 04:58:26;;;;;;;13.88;8.35;;;10.50;99.90;;;;;;5065267;28;20020;-86
2022/04/28 05:00:54;;;;;;;17.15;8.15;;;10.60;99.90;;;;;;5066666;28;20021;-84
2022/04/28 05:03:23;;;;;;;13.00;7.63;;;10.70;99.90;;;;;;5085241;28;20052;-86
2022/04/28 05:06:01;;;;;;;13.95;7.65;;;10.80;99.90;;;;;;5085552;28;20036;-84
2022/04/28 05:08:45;;;;;;;10.95;6.97;;;10.90;99.90;;;;;;5050356;28;20035;-86
2022/04/28 05:11:12;;;;;;;14.15;7.13;;;10.90;99.90;;;;;;5063429;28;20086;-85
2022/04/28 05:13:45;;;;;;;12.75;7.38;;;11.10;99.90;;;;;;5058684;28;20488;-84
2022/04/28 05:16:13;;;;;;;14.48;7.80;;;11.20;99.90;;;;;;5062941;28;20032;-83
2022/04/28 05:18:49;;;;;;;14.18;7.57;;;11.40;99.90;;;;;;5064674;28;20017;-86
2022/04/28 05:21:33;;;;;;;11.33;7.30;;;11.70;99.90;;;;;;5082932;28;20056;-84
2022/04/28 05:24:17;;;;;;;16.52;7.50;;;12.00;99.90;;;;;;5081881;28;20107;-84
2022/04/28 05:27:02;;;;;;;16.10;7.97;;;12.10;99.90;;;;;;5083775;28;20067;-83
2022/04/28 05:29:57;;;;;;;12.43;7.72;;;12.10;99.90;;;;;;5020014;28;20045;-85
2022/04/28 05:32:55;;;;;;;12.80;7.53;;;12.20;99.90;;;;;;5034669;28;20084;-84
2022/04/28 05:35:53;;;;;;;10.88;6.28;;;12.30;99.90;;;;;;5024733;28;20056;-84
2022/04/28 05:38:20;;;;;;;13.18;7.20;;;12.70;99.90;;;;;;5084136;28;20072;-85
2022/04/28 05:40:49;;;;;;;14.98;7.45;;;12.80;99.90;;;;;;5067641;28;20097;-85
2022/04/28 05:45:59;;;;;;;16.42;7.45;;;13.10;99.90;;;;;;5083266;28;20484;-87
2022/04/28 05:48:26;;;;;;;15.77;6.80;;;13.20;99.90;;;;;;5066513;28;20503;-86
2022/04/28 05:50:54;;;;;;;12.95;7.57;;;13.40;99.90;;;;;;5060584;28;20016;-82
2022/04/28 05:53:21;;;;;;;16.23;7.72;;;13.40;99.90;;;;;;5076409;28;20024;-86
2022/04/28 05:55:54;;;;;;;14.20;6.50;;;13.50;99.90;;;;;;5064342;28;20044;-84
2022/04/28 05:58:24;;;;;;;12.77;7.13;;;13.60;99.90;;;;;;5075007;28;20507;-86
2022/04/28 06:01:09;;;;;;;10.88;6.50;;;13.70;99.90;;;;;;5091104;28;20051;-86
2022/04/28 06:03:39;;;;;;;13.90;7.65;;;13.70;99.90;;;;;;5071832;28;20020;-85
2022/04/28 06:06:14;;;;;;;15.85;6.88;;;13.70;99.90;;;;;;5057667;28;20033;-85
2022/04/28 06:08:41;;;;;;;20.85;7.47;;;13.70;99.90;;;;;;5090076;28;20103;-83
2022/04/28 06:11:08;;;;;;;11.93;6.90;;;13.70;99.90;;;;;;5053610;28;20048;-85
2022/04/28 06:13:34;;;;;;;13.18;7.10;;;13.80;99.90;;;;;;5088715;28;20029;-85
2022/04/28 06:16:22;;;;;;;17.63;7.35;;;13.90;99.90;;;;;;5083876;28;20080;-85
2022/04/28 06:18:56;;;;;;;12.52;7.07;;;14.00;99.90;;;;;;5075542;28;20032;-85
2022/04/28 06:21:48;;;;;;;11.45;6.75;;;14.20;99.90;;;;;;5051167;28;20033;-85
2022/04/28 06:24:14;;;;;;;18.27;7.32;;;14.40;99.90;;;;;;5089385;28;20036;-83
2022/04/28 06:26:40;;;;;;;14.55;6.93;;;14.50;99.70;;;;;;5094258;28;20032;-84
2022/04/28 06:29:06;;;;;;;11.48;6.43;;;14.60;99.30;;;;;;5094311;28;20035;-85
2022/04/28 06:31:34;;;;;;;9.63;6.60;;;14.70;98.70;;;;;;5075192;28;20013;-84
2022/04/28 06:34:20;;;;;;;10.63;6.55;;;14.90;98.80;;;;;;5063128;28;20056;-84
2022/04/28 06:36:46;;;;;;;12.35;6.38;;;15.10;98.50;;;;;;5077820;28;20020;-86
2022/04/28 06:39:13;;;;;;;11.88;7.00;;;15.30;98.30;;;;;;5081859;28;20036;-82
2022/04/28 06:41:40;;;;;;;12.65;6.93;;;15.50;97.60;;;;;;5081852;28;20020;-84
2022/04/28 06:44:17;;;;;;;11.80;6.57;;;15.40;97.30;;;;;;5082074;28;20028;-83
2022/04/28 06:46:52;;;;;;;13.02;6.78;;;15.60;97.20;;;;;;5093960;28;20035;-83
2022/04/28 06:49:21;;;;;;;10.07;6.50;;;15.50;97.20;;;;;;5099547;28;20040;-82
2022/04/28 06:52:02;;;;;;;14.48;7.50;;;15.40;97.30;;;;;;5098154;28;20017;-83
2022/04/28 06:54:50;;;;;;;11.68;6.20;;;15.40;97.30;;;;;;5092286;28;20044;-83
2022/04/28 06:57:21;;;;;;;11.48;7.10;;;15.30;97.50;;;;;;5095013;22;20055;-81
2022/04/28 06:59:47;;;;;;;11.80;6.80;;;15.30;97.40;;;;;;5046408;28;20025;-82
2022/04/28 07:02:17;;;;;;;10.80;7.28;;;15.20;97.40;;;;;;5045476;28;20119;-81
2022/04/28 07:04:45;;;;;;;12.43;6.97;;;15.10;97.40;;;;;;5082130;28;20032;-80
2022/04/28 07:07:15;;;;;;;12.38;6.72;;;15.00;97.50;;;;;;5069636;28;20126;-81
2022/04/28 07:09:43;;;;;;;16.27;7.75;;;15.00;97.60;;;;;;5068799;28;20040;-80
2022/04/28 07:12:11;;;;;;;13.00;7.85;;;15.00;97.60;;;;;;5069650;28;20100;-80
2022/04/28 07:14:55;;;;;;;10.07;6.72;;;15.00;97.70;;;;;;5093297;28;20048;-80
2022/04/28 07:17:47;;;;;;;15.48;7.13;;;15.00;97.60;;;;;;5108933;28;20040;-79
2022/04/28 07:20:13;;;;;;;9.25;6.57;;;15.00;97.20;;;;;;5086294;28;20023;-81
2022/04/28 07:22:40;;;;;;;13.63;8.07;;;14.90;97.30;;;;;;5053437;28;20048;-80
2022/04/28 07:25:07;;;;;;;12.02;7.25;;;14.80;97.40;;;;;;5080459;28;20028;-82
2022/04/28 07:27:32;;;;;;;12.07;7.47;;;14.90;97.50;;;;;;5084012;28;20024;-80
2022/04/28 07:30:11;;;;;;;15.13;7.75;;;14.90;97.50;;;;;;5075740;28;20021;-81
2022/04/28 07:32:40;;;;;;;17.75;7.30;;;14.90;97.60;;;;;;5061912;28;20024;-81
2022/04/28 07:35:15;;;;;;;12.55;7.35;;;15.00;98.00;;;;;;5080805;28;20044;-81
2022/04/28 07:38:00;;;;;;;;;;;15.10;97.90;;;;;;5080029;28;20119;-80
2022/04/28 07:40:33;;;;;;;15.27;8.27;;;15.00;98.10;;;;;;5077911;28;19942;-83
2022/04/28 07:43:03;;;;;;;11.95;7.80;;;15.00;98.10;;;;;;5080157;28;20025;-82
2022/04/28 07:45:30;;;;;;;12.38;7.85;;;15.10;98.20;;;;;;5057927;28;20484;-82
2022/04/28 07:47:57;;;;;;;11.57;7.10;;;15.10;98.50;;;;;;5042795;28;20385;-83
2022/04/28 07:50:24;;;;;;;11.77;7.50;;;15.10;98.40;;;;;;5077097;28;20032;-80
2022/04/28 07:52:55;;;;;;;15.73;7.60;;;15.20;98.30;;;;;;5066037;28;20031;-79
2022/04/28 07:55:21;;;;;;;13.15;7.70;;;15.30;98.50;;;;;;5069903;28;20084;-82
2022/04/28 07:57:50;;;;;;;12.30;7.78;;;15.30;98.30;;;;;;5044474;28;20162;-81
2022/04/28 08:00:25;;;;;;;;;;;15.40;97.10;;;;;;5062168;28;20483;-81
2022/04/28 08:02:54;;;;;;;10.75;6.85;;;15.40;97.30;;;;;;5070885;28;19966;-81
2022/04/28 08:05:26;;;;;;;14.75;7.50;;;15.40;97.40;;;;;;5066460;28;20027;-80
2022/04/28 08:07:52;;;;;;;16.05;8.45;;;15.60;97.30;;;;;;5070137;28;20029;-80
2022/04/28 08:10:18;;;;;;;15.40;8.00;;;15.70;97.20;;;;;;5052160;28;20055;-82
2022/04/28 08:12:44;;;;;;;11.55;8.27;;;15.70;97.40;;;;;;5089616;28;20028;-82
2022/04/28 08:15:30;;;;;;;14.90;8.70;;;15.80;97.20;;;;;;5062157;28;20091;-80
2022/04/28 08:17:57;;;;;;;13.02;7.80;;;15.80;96.70;;;;;;5071931;28;20016;-82
2022/04/28 08:20:23;;;;;;;15.40;7.80;;;15.90;96.50;;;;;;5066962;28;20027;-81
2022/04/28 08:22:49;;;;;;;13.88;7.78;;;15.90;96.40;;;;;;5062433;28;20060;-83
2022/04/28 08:25:15;;;;;;;12.77;8.15;;;15.80;96.80;;;;;;5060825;28;20032;-82
2022/04/28 08:27:42;;;;;;;16.05;7.97;;;15.80;97.00;;;;;;5044433;28;20115;-81
2022/04/28 08:30:08;;;;;;;14.50;7.95;;;15.90;96.60;;;;;;5060672;28;20063;-83
2022/04/28 08:32:36;;;;;;;16.63;7.82;;;16.00;96.10;;;;;;5059062;28;20052;-82
2022/04/28 08:35:01;;;;;;;13.23;7.72;;;16.00;96.30;;;;;;5079638;28;20024;-82
2022/04/28 08:37:27;;;;;;;22.55;9.23;;;16.20;96.20;;;;;;5060035;28;20538;-80
2022/04/28 08:39:53;;;;;;;14.82;9.75;;;16.30;96.30;;;;;;5044391;28;20016;-82
2022/04/28 08:42:21;;;;;;;15.45;9.18;;;16.30;95.90;;;;;;5057983;28;20074;-80
2022/04/28 08:45:00;;;;;;;15.43;9.18;;;16.20;95.70;;;;;;5039505;28;20435;-82
2022/04/28 08:47:38;;;;;;;17.33;8.98;;;16.20;96.00;;;;;;5059800;28;20041;-82
2022/04/28 08:50:22;;;;;;;17.88;9.30;;;16.30;96.00;;;;;;5044314;28;20032;-80
2022/04/28 08:53:09;;;;;;;16.45;9.40;;;16.50;95.80;;;;;;5080566;28;20110;-82
2022/04/28 08:55:37;;;;;;;19.85;9.68;;;16.50;95.60;;;;;;5078660;28;20043;-81
2022/04/28 08:58:04;;;;;;;12.10;8.23;;;16.60;94.70;;;;;;5058645;28;20031;-82
2022/04/28 09:00:37;;;;;;;12.80;8.07;;;16.70;94.90;;;;;;5059908;28;20025;-83
2022/04/28 09:03:21;;;;;;;14.27;8.63;;;16.70;94.60;;;;;;5077184;28;20042;-80
2022/04/28 09:06:20;;;;;;;16.13;9.07;;;16.80;94.50;;;;;;5059321;28;20044;-82
2022/04/28 09:09:17;;;;;;;16.20;9.32;;;16.90;94.20;;;;;;5048319;28;20032;-80
2022/04/28 09:12:03;;;;;;;13.00;7.63;;;17.10;94.10;;;;;;5064635;28;20623;-81
2022/04/28 09:14:48;;;;;;;12.70;7.78;;;17.20;93.60;;;;;;5077084;28;20051;-82
2022/04/28 09:17:20;;;;;;;16.70;8.18;;;17.30;92.90;;;;;;5059687;28;20029;-83
2022/04/28 09:19:47;;;;;;;18.80;8.80;;;17.50;93.00;;;;;;5046217;28;20029;-82
2022/04/28 09:22:23;;;;;;;20.50;7.82;;;17.50;92.10;;;;;;5068024;28;20044;-80
2022/04/28 09:24:57;;;;;;;11.90;7.28;;;17.70;92.30;;;;;;5082718;28;21006;-80
2022/04/28 09:27:24;;;;;;;14.85;8.00;;;18.10;91.30;;;;;;5072936;28;20020;-80
2022/04/28 09:29:54;;;;;;;13.48;7.40;;;18.80;91.20;;;;;;5057296;28;20029;-82
2022/04/28 09:32:21;;;;;;;11.65;6.75;;;19.40;89.40;;;;;;5059890;28;20023;-83
2022/04/28 09:35:09;;;;;;;15.40;6.03;;;19.60;87.30;;;;;;5077563;28;20020;-81
2022/04/28 09:37:51;;;;;;;9.68;5.90;;;20.10;85.20;;;;;;5084947;28;20040;-80
2022/04/28 09:43:03;;;;;;;9.60;6.20;;;21.10;77.10;;;;;;5078225;28;20036;-80
2022/04/28 09:45:51;;;;;;;;;;;22.30;74.80;;;;;;5076514;28;20020;-81
2022/04/28 09:48:19;;;;;;;7.75;5.63;;;23.00;70.60;;;;;;5056804;28;19927;-82
2022/04/28 09:51:00;;;;;;;10.13;6.03;;;24.00;69.40;;;;;;5077738;28;20020;-83
2022/04/28 09:53:48;;;;;;;9.82;5.82;;;24.90;66.20;;;;;;5072674;28;20064;-83
2022/04/28 09:56:36;;;;;;;6.45;4.95;;;26.00;62.80;;;;;;5063718;28;20029;-81
2022/04/28 09:59:17;;;;;;;7.43;4.63;;;26.60;58.80;;;;;;5079478;28;20195;-82
2022/04/28 10:01:44;;;;;;;4.78;3.83;;;27.60;56.30;;;;;;5095513;28;20154;-82
2022/04/28 10:04:10;;;;;;;8.35;4.07;;;28.10;54.20;;;;;;5077819;28;20243;-81
2022/04/28 10:07:00;;;;;;;7.50;3.53;;;28.50;52.70;;;;;;5079641;28;20024;-82
2022/04/28 10:09:29;;;;;;;6.28;3.38;;;28.30;50.80;;;;;;5078739;28;20038;-83
2022/04/28 10:12:06;;;;;;;4.40;3.10;;;28.00;50.10;;;;;;5074934;28;20013;-81
2022/04/28 10:14:43;;;;;;;6.05;3.10;;;28.60;47.90;;;;;;5074514;28;20028;-84
2022/04/28 10:17:13;;;;;;;6.68;3.00;;;29.50;47.70;;;;;;5083631;28;20054;-84
2022/04/28 10:19:44;;;;;;;5.07;3.15;;;30.80;45.30;;;;;;5078623;28;20028;-82
2022/04/28 10:22:29;;;;;;;5.85;3.53;;;31.90;43.60;;;;;;5067675;28;20108;-83
2022/04/28 10:33:50;;;;;;;4.95;3.40;;;25.40;46.10;;;;;;5069228;28;20044;-84
2022/04/28 10:36:25;;;;;;;7.47;3.88;;;26.10;46.80;;;;;;5084953;28;20040;-85
2022/04/28 10:39:08;;;;;;;5.47;3.50;;;27.70;45.90;;;;;;5081847;28;20028;-83
2022/04/28 10:41:34;;;;;;;5.82;3.33;;;28.20;45.80;;;;;;5066992;28;20197;-84
2022/04/28 10:44:15;;;;;;;8.85;3.70;;;27.70;45.80;;;;;;5100896;28;20042;-87
2022/04/28 10:46:57;;;;;;;5.00;3.17;;;27.30;45.00;;;;;;5095824;28;20036;-86
2022/04/28 10:49:26;;;;;;;7.05;3.40;;;27.30;45.70;;;;;;5083439;28;20028;-84
2022/04/28 10:51:58;;;;;;;7.53;4.07;;;28.50;45.50;;;;;;5090443;28;20021;-87
2022/04/28 10:54:24;;;;;;;9.75;4.53;;;27.60;46.70;;;;;;5081715;28;20052;-86
2022/04/28 10:56:57;;;;;;;7.95;3.78;;;25.90;49.00;;;;;;5075313;28;20045;-84
2022/04/28 10:59:34;;;;;;;6.50;4.85;;;24.80;50.60;;;;;;5093335;28;20024;-87
2022/04/28 11:02:15;;;;;;;9.23;4.90;;;23.70;51.90;;;;;;5087035;28;20092;-87
2022/04/28 11:04:49;;;;;;;7.28;4.40;;;23.50;53.40;;;;;;5066189;28;20044;-87
2022/04/28 11:07:19;;;;;;;11.25;4.70;;;24.90;52.40;;;;;;5051627;28;20033;-85
2022/04/28 11:09:55;;;;;;;12.80;4.82;;;26.80;49.90;;;;;;5072998;28;20024;-84
2022/04/28 11:12:22;;;;;;;14.27;4.43;;;28.70;49.10;;;;;;5081322;28;20040;-83
2022/04/28 11:15:03;;;;;;;14.77;5.22;;;30.50;47.70;;;;;;5083042;28;20098;-85
2022/04/28 11:17:30;;;;;;;9.65;4.88;;;31.30;46.60;;;;;;5045862;28;20029;-83
2022/04/28 11:20:00;;;;;;;10.00;4.45;;;30.50;46.20;;;;;;5076448;28;20446;-83
2022/04/28 11:22:28;;;;;;;9.43;5.05;;;29.80;46.60;;;;;;5084043;28;20020;-83
2022/04/28 11:24:56;;;;;;;9.70;4.47;;;29.70;46.60;;;;;;5081969;28;20020;-84
2022/04/28 11:27:39;;;;;;;5.28;3.90;;;30.40;46.90;;;;;;5064085;28;20024;-84
2022/04/28 11:30:19;;;;;;;5.37;4.13;;;31.20;45.40;;;;;;5064569;28;20020;-84
2022/04/28 11:32:51;;;;;;;5.45;4.10;;;31.20;45.50;;;;;;5062490;28;20580;-82
2022/04/28 11:35:18;;;;;;;10.32;4.78;;;31.00;45.60;;;;;;5078910;28;20036;-82
2022/04/28 11:37:45;;;;;;;7.65;4.32;;;30.90;46.10;;;;;;5083741;28;20059;-86
2022/04/28 11:40:16;;;;;;;10.68;4.70;;;30.80;45.50;;;;;;5081196;28;20020;-83
2022/04/28 11:42:42;;;;;;;5.25;4.07;;;29.40;45.90;;;;;;5079283;28;20024;-83
2022/04/28 11:45:08;;;;;;;7.20;3.90;;;28.90;46.60;;;;;;5078239;28;20096;-84
2022/04/28 11:47:43;;;;;;;6.10;3.90;;;29.40;46.10;;;;;;5061016;28;20047;-81
2022/04/28 11:50:18;;;;;;;5.63;4.07;;;29.60;44.90;;;;;;5098578;28;20032;-81
2022/04/28 11:52:44;;;;;;;5.93;3.60;;;28.70;45.10;;;;;;5065980;28;20036;-84
2022/04/28 11:55:12;;;;;;;7.47;3.13;;;27.90;45.70;;;;;;5078078;28;20070;-81
2022/04/28 11:57:39;;;;;;;5.25;3.30;;;27.10;46.40;;;;;;5075367;28;20028;-84
2022/04/28 12:00:12;;;;;;;3.75;3.13;;;26.30;45.90;;;;;;5092806;28;20468;-85
2022/04/28 12:02:39;;;;;;;5.00;3.40;;;25.50;47.00;;;;;;5076580;28;20096;-84
2022/04/28 12:05:21;;;;;;;6.03;3.50;;;24.60;48.10;;;;;;5090476;28;20033;-82
2022/04/28 12:07:51;;;;;;;7.38;3.65;;;23.80;49.30;;;;;;5076046;28;20032;-83
2022/04/28 12:16:01;;;;;;;15.15;3.78;;;22.80;50.80;;;;;;5085829;28;20042;-83
2022/04/28 12:21:23;;;;;;;7.45;3.90;;;22.40;51.60;;;;;;5067397;28;20782;-83
2022/04/28 12:23:55;;;;;;;7.97;4.13;;;22.20;52.00;;;;;;5092556;28;20024;-86
2022/04/28 12:26:26;;;;;;;5.55;3.78;;;22.40;51.80;;;;;;5062578;28;20500;-84
2022/04/28 12:28:53;;;;;;;8.38;4.35;;;22.50;51.70;;;;;;5081625;28;20515;-87
2022/04/28 12:31:31;;;;;;;6.15;3.88;;;22.80;51.30;;;;;;5087277;28;20024;-88
2022/04/28 12:34:11;;;;;;;5.40;3.17;;;23.30;50.50;;;;;;5070522;28;20052;-87
2022/04/28 12:36:48;;;;;;;6.50;3.47;;;23.80;49.80;;;;;;5068659;28;20055;-85
2022/04/28 12:39:16;;;;;;;5.35;3.30;;;24.60;48.60;;;;;;5047008;28;20056;-83
2022/04/28 12:41:44;;;;;;;4.80;2.88;;;25.30;48.00;;;;;;5080539;28;20020;-86
2022/04/28 12:44:10;;;;;;;9.95;3.38;;;26.80;47.00;;;;;;5081709;28;20104;-92
2022/04/28 12:46:39;;;;;;;4.80;3.05;;;28.80;46.10;;;;;;5064558;28;20064;-85
2022/04/28 12:49:08;;;;;;;4.40;2.85;;;30.70;44.50;;;;;;5088533;28;20051;-86
2022/04/28 12:51:48;;;;;;;4.93;3.40;;;31.00;44.00;;;;;;5066274;28;20442;-86
2022/04/28 12:54:17;;;;;;;5.05;3.05;;;29.20;44.50;;;;;;5083685;28;20056;-84
2022/04/28 12:56:44;;;;;;;6.43;3.20;;;27.40;44.70;;;;;;5103562;22;20028;-90
2022/04/28 12:59:17;;;;;;;5.68;3.15;;;26.20;45.60;;;;;;5084540;28;20039;-89
2022/04/28 13:01:47;;;;;;;7.63;3.53;;;25.50;46.20;;;;;;5084011;28;20039;-87
2022/04/28 13:04:18;;;;;;;9.02;3.55;;;25.30;46.80;;;;;;5076449;28;20033;-88
2022/04/28 13:06:45;;;;;;;5.68;3.17;;;25.90;46.90;;;;;;5088517;28;20033;-88
2022/04/28 13:09:13;;;;;;;5.63;3.20;;;26.90;47.30;;;;;;5077867;28;20048;-88
2022/04/28 13:11:40;;;;;;;4.82;3.55;;;28.10;45.70;;;;;;5084625;28;20117;-88
2022/04/28 13:14:09;;;;;;;7.38;3.50;;;29.30;45.20;;;;;;5086490;28;20111;-89
2022/04/28 13:16:35;;;;;;;8.13;3.38;;;29.70;44.20;;;;;;5081726;28;20040;-90
2022/04/28 13:19:02;;;;;;;4.13;2.97;;;29.90;43.60;;;;;;5087477;28;20028;-90
2022/04/28 13:21:28;;;;;;;7.78;3.83;;;29.10;44.00;;;;;;5085602;28;20028;-87
2022/04/28 13:23:55;;;;;;;6.88;3.38;;;27.80;44.40;;;;;;5096579;28;20027;-86
2022/04/28 13:26:22;;;;;;;12.57;3.97;;;26.50;45.70;;;;;;5095378;28;20027;-86
2022/04/28 13:28:50;;;;;;;12.32;3.83;;;25.10;47.30;;;;;;5091899;28;20052;-88
2022/04/28 13:31:16;;;;;;;4.97;3.78;;;24.30;48.40;;;;;;5092928;28;20029;-86
2022/04/28 13:33:43;;;;;;;7.72;3.80;;;24.20;48.20;;;;;;5089193;28;20029;-86
2022/04/28 13:36:10;;;;;;;9.68;3.85;;;24.00;48.50;;;;;;5090242;28;20067;-85
2022/04/28 13:38:36;;;;;;;8.93;4.10;;;23.70;49.60;;;;;;5086879;28;20024;-86
2022/04/28 13:41:04;;;;;;;11.95;3.75;;;23.40;50.10;;;;;;5088080;28;20059;-86
2022/04/28 13:43:31;;;;;;;6.07;3.70;;;23.20;50.90;;;;;;5087187;28;20050;-88